Kapalua-West, HI

6:39 PM HST on September 20, 2014 (GMT -1000)
Lahaina | Change Station
CLOSE
Current Station
Airport
Location: Lahaina,
Elevation: 256 ft
Nearby Weather Stations

Elev 256 ft 20.96 °N, 156.67 °W | Updated 54 minutes ago

Mostly Cloudy
Mostly Cloudy
82 °F
Feels Like 88 °F
N
0
Wind Variable Wind from North

Today
High -- | Low -- °F
--% Chance of Precip.
Yesterday
High -- | Low -- °F
Precip. -- in
6:15 AM 6:24 PM
Waning Crescent, 9% visible
Pressure 29.91 in
Visibility 15.0 miles
Clouds Scattered Clouds 3500 ft
Mostly Cloudy 4500 ft
Heat Index 88 °F
Dew Point 73 °F
Humidity 74%
Rainfall 0.00 in
Snow Depth Not available.
UV 0 out of 12
Pollen Not available.
Air Quality Not available.
Flu Activity Not available.
METAR PHJH 210345Z 00000KT 15SM SCT035 BKN045 28/23 A2991 RMK LAST

More Conditions Fewer Conditions

Pressure 29.91 in
Visibility 15.0 miles
Clouds Scattered Clouds 3500 ft
Mostly Cloudy 4500 ft
Heat Index 88 °F
Dew Point 73 °F
Humidity 74%
Rainfall 0.00 in
Snow Depth Not available.
UV 0 out of 12
Pollen Not available.
Air Quality Not available.
Flu Activity Not available.
METAR PHJH 210345Z 00000KT 15SM SCT035 BKN045 28/23 A2991 RMK LAST

More Conditions Fewer Conditions

10-Day Weather Forecast

Almanac

Astronomy

Sep. 20, 2014 Rise Set
Actual Time 6:15 AM HST 6:24 PM HST
Civil Twilight 5:52 AM HST 6:46 PM HST
Nautical Twilight 5:27 AM HST 7:12 PM HST
Astronomical Twilight 5:01 AM HST 7:38 PM HST
Moon 3:23 AM HST (9/20) 4:18 PM HST (9/20)
Length of Visible Light 12h 53m
Length of Day
12h 09m
Tomorrow will be 1m 11s shorter.
Waning Crescent, 9% of the Moon is Illuminated
Sep 21
Waning Crescent
Sep 24
New
Oct 1
First Quarter
Oct 8
Full
Oct 15
Last Quarter

Yesterday's Extremes

State Highs State Lows

Community

WunderPhotos

Upload Photos

1,755,081 photos uploaded!

Nearby

Snow Depth

Station Depth Elevation
No new snow has been reported.

Earthquake Activity

City Distance Mag. Time & Date
No recent earthquake activity has been reported nearby.
Minimum magnitude displayed is 2.5.

Coastal Water Temperatures

Place Temperature
No Stations Reporting

Nearby Weather Stations